createdAt,value
2019-01-15T00:01:51.053Z,37.63
2019-01-15T00:06:56.435Z,35.27
2019-01-15T00:12:07.849Z,34.20
2019-01-15T00:17:09.013Z,36.10
2019-01-15T00:22:14.196Z,35.00
2019-01-15T00:27:19.349Z,34.77
2019-01-15T00:32:25.726Z,31.33
2019-01-15T00:37:31.144Z,32.17
2019-01-15T00:42:36.205Z,35.33
2019-01-15T00:47:41.607Z,34.17
2019-01-15T00:52:46.581Z,28.83
2019-01-15T00:57:51.594Z,31.30
2019-01-15T01:02:56.603Z,32.70
2019-01-15T01:08:01.862Z,33.37
2019-01-15T01:13:07.078Z,29.23
2019-01-15T01:18:12.369Z,29.93
2019-01-15T01:23:17.477Z,32.63
2019-01-15T01:28:22.512Z,33.23
2019-01-15T01:33:27.521Z,31.13
2019-01-15T01:38:32.584Z,30.63
2019-01-15T01:43:37.629Z,33.17
2019-01-15T01:48:42.660Z,32.93
2019-01-15T01:53:47.635Z,33.67
2019-01-15T01:58:52.650Z,29.93
2019-01-15T02:03:57.707Z,31.10
2019-01-15T02:09:03.329Z,32.43
2019-01-15T02:14:09.352Z,32.47
2019-01-15T02:19:22.293Z,37.83
2019-01-15T02:24:27.671Z,33.73
2019-01-15T02:29:32.686Z,39.20
2019-01-15T02:34:37.760Z,34.70
2019-01-15T02:39:42.838Z,35.80
2019-01-15T02:44:48.977Z,36.87
2019-01-15T02:49:54.028Z,35.63
2019-01-15T02:54:59.137Z,35.53
2019-01-15T03:00:05.855Z,37.67
2019-01-15T03:05:11.425Z,30.80
2019-01-15T03:10:17.912Z,34.47
2019-01-15T03:15:24.225Z,40.73
2019-01-15T03:20:30.474Z,41.00
2019-01-15T03:25:35.495Z,40.83
2019-01-15T03:30:40.502Z,38.63
2019-01-15T03:35:45.518Z,39.57
2019-01-15T03:40:50.707Z,38.00
2019-01-15T03:46:03.965Z,42.57
2019-01-15T03:51:03.378Z,40.90
2019-01-15T03:56:08.458Z,37.80
2019-01-15T04:01:13.454Z,41.23
2019-01-15T04:06:18.495Z,36.23
2019-01-15T04:11:23.656Z,33.27
2019-01-15T04:16:28.697Z,36.93
2019-01-15T04:21:33.798Z,38.80
2019-01-15T04:26:40.821Z,40.80
2019-01-15T04:31:45.776Z,37.90
2019-01-15T04:36:50.796Z,36.63
2019-01-15T04:41:55.838Z,39.50
2019-01-15T04:47:01.265Z,35.43
2019-01-15T04:52:07.013Z,36.77
2019-01-15T04:57:12.169Z,40.60
2019-01-15T05:02:17.296Z,39.67
2019-01-15T05:07:22.310Z,36.60
2019-01-15T05:12:27.414Z,42.33
2019-01-15T05:17:32.557Z,38.23
2019-01-15T05:22:37.644Z,37.17
2019-01-15T05:27:42.695Z,42.47
2019-01-15T05:32:47.769Z,36.43
2019-01-15T05:37:53.068Z,40.23
2019-01-15T05:42:58.181Z,39.17
2019-01-15T05:48:09.149Z,39.27
2019-01-15T05:53:14.570Z,38.97
2019-01-15T05:58:19.698Z,38.37
2019-01-15T06:03:24.766Z,42.77
2019-01-15T06:08:30.111Z,37.07
2019-01-15T06:13:35.155Z,37.83
2019-01-15T06:18:40.161Z,31.50
2019-01-15T06:23:45.550Z,36.33
2019-01-15T06:28:51.152Z,36.10
2019-01-15T06:34:03.379Z,36.50
2019-01-15T06:39:10.210Z,37.07
2019-01-15T06:44:16.124Z,37.53
2019-01-15T06:49:26.689Z,34.73
2019-01-15T06:54:34.041Z,31.27
2019-01-15T06:59:45.552Z,30.90
2019-01-15T07:04:50.703Z,31.10
2019-01-15T07:09:56.024Z,34.90
2019-01-15T07:15:01.599Z,27.40
2019-01-15T07:20:15.443Z,30.30
2019-01-15T07:25:21.258Z,29.90
2019-01-15T07:30:42.029Z,35.57
2019-01-15T07:35:47.435Z,30.53
2019-01-15T07:40:52.796Z,30.60
2019-01-15T07:45:58.090Z,36.40
2019-01-15T07:51:03.798Z,32.40
2019-01-15T07:56:08.916Z,35.20
2019-01-15T08:01:19.626Z,29.37
2019-01-15T08:06:31.646Z,26.33
2019-01-15T08:12:10.400Z,29.63
2019-01-15T08:17:17.376Z,28.40
2019-01-15T08:22:22.920Z,27.23
2019-01-15T08:27:28.064Z,25.60
2019-01-15T08:32:33.242Z,28.40
2019-01-15T08:37:38.336Z,29.37
2019-01-15T08:42:43.531Z,24.30
2019-01-15T08:47:53.471Z,27.43
2019-01-15T08:52:58.760Z,28.13
2019-01-15T08:58:03.887Z,27.40
2019-01-15T09:03:09.293Z,28.70
2019-01-15T09:08:15.933Z,26.57
2019-01-15T09:13:21.135Z,27.57
2019-01-15T09:18:26.397Z,27.37
2019-01-15T09:23:34.391Z,27.17
2019-01-15T09:28:39.421Z,29.40
2019-01-15T09:33:44.896Z,32.20
2019-01-15T09:38:50.096Z,33.03
2019-01-15T09:43:55.374Z,34.03
2019-01-15T09:49:02.819Z,29.10
2019-01-15T09:54:10.294Z,29.37
2019-01-15T09:59:15.384Z,28.43
2019-01-15T10:04:20.476Z,25.47
2019-01-15T10:09:25.654Z,26.17
2019-01-15T10:14:40.995Z,26.53
2019-01-15T10:19:41.742Z,25.73
2019-01-15T10:24:47.655Z,23.60
2019-01-15T10:29:59.201Z,24.43
2019-01-15T10:35:06.795Z,24.43
2019-01-15T10:40:13.814Z,24.70
2019-01-15T10:45:18.922Z,25.53
2019-01-15T10:50:25.286Z,26.17
2019-01-15T10:55:30.614Z,27.03
2019-01-15T11:00:35.849Z,27.97
2019-01-15T11:05:46.022Z,30.23
2019-01-15T11:10:51.376Z,31.43
2019-01-15T11:16:11.980Z,29.20
2019-01-15T11:21:17.560Z,31.20
2019-01-15T11:26:24.407Z,29.00
2019-01-15T11:31:29.797Z,31.07
2019-01-15T11:36:35.007Z,29.70
2019-01-15T11:41:52.550Z,31.77
2019-01-15T11:46:58.073Z,31.30
2019-01-15T11:52:03.639Z,29.73
2019-01-15T11:57:08.752Z,33.77
2019-01-15T12:02:32.080Z,34.17
2019-01-15T12:07:56.547Z,30.13
2019-01-15T12:13:27.852Z,29.40
2019-01-15T12:18:54.486Z,31.63
2019-01-15T12:24:23.970Z,28.63
2019-01-15T12:29:53.186Z,33.30
2019-01-15T12:35:25.140Z,29.17
2019-01-15T12:40:44.125Z,29.00
2019-01-15T12:46:08.808Z,29.37
2019-01-15T12:51:34.483Z,28.77
2019-01-15T12:57:05.518Z,25.00
2019-01-15T13:02:31.432Z,24.67
2019-01-15T13:07:55.964Z,23.73
2019-01-15T13:13:21.095Z,27.67
2019-01-15T13:18:44.112Z,27.37
2019-01-15T13:24:12.371Z,26.93
2019-01-15T13:29:45.451Z,23.27
2019-01-15T13:35:09.573Z,23.40
2019-01-15T13:40:30.955Z,23.03
2019-01-15T13:46:08.377Z,26.27
2019-01-15T13:51:45.788Z,30.10
2019-01-15T13:57:28.127Z,28.00
2019-01-15T14:02:58.416Z,27.43
2019-01-15T14:08:38.032Z,25.07
2019-01-15T14:14:00.807Z,27.73
2019-01-15T14:19:23.917Z,25.53
2019-01-15T14:24:58.295Z,25.70
2019-01-15T14:30:23.407Z,22.97
2019-01-15T14:35:58.576Z,28.30
2019-01-15T14:41:45.502Z,27.20
2019-01-15T14:47:25.235Z,29.77
2019-01-15T14:53:10.385Z,33.77
2019-01-15T14:58:40.526Z,27.70
2019-01-15T15:04:16.108Z,32.50
2019-01-15T15:09:39.182Z,30.50
2019-01-15T15:15:05.842Z,29.57
2019-01-15T15:20:43.112Z,30.03
2019-01-15T15:26:10.349Z,32.40
2019-01-15T15:31:36.906Z,31.67
2019-01-15T15:36:54.766Z,35.80
2019-01-15T15:42:13.796Z,32.43
2019-01-15T15:47:42.058Z,30.63
2019-01-15T15:53:11.009Z,33.40
2019-01-15T15:58:47.298Z,32.23
2019-01-15T16:04:14.515Z,33.17
2019-01-15T16:09:59.762Z,31.57
2019-01-15T16:15:14.124Z,30.70
2019-01-15T16:20:46.513Z,35.43
2019-01-15T16:26:09.935Z,30.60
2019-01-15T16:31:46.534Z,31.70
2019-01-15T16:37:25.653Z,30.23
2019-01-15T16:42:50.610Z,31.03
2019-01-15T16:48:14.647Z,29.17
2019-01-15T16:53:39.382Z,32.70
2019-01-15T16:59:02.762Z,30.50
2019-01-15T17:04:27.487Z,30.33
2019-01-15T17:09:55.740Z,30.97
2019-01-15T17:15:25.981Z,31.93
2019-01-15T17:20:57.780Z,29.67
2019-01-15T17:26:14.457Z,28.33
2019-01-15T17:31:38.595Z,29.37
2019-01-15T17:36:56.598Z,33.90
2019-01-15T17:42:18.358Z,30.13
2019-01-15T17:47:41.705Z,31.27
2019-01-15T17:53:09.290Z,27.30
2019-01-15T17:58:24.581Z,30.60
2019-01-15T18:03:53.681Z,30.40
2019-01-15T18:09:26.200Z,31.70
2019-01-15T18:15:02.553Z,31.77
2019-01-15T18:20:25.617Z,33.77
2019-01-15T18:26:08.078Z,34.40
2019-01-15T18:31:30.828Z,30.57
2019-01-15T18:37:03.808Z,32.43
2019-01-15T18:42:35.768Z,33.97
2019-01-15T18:47:59.370Z,28.03
2019-01-15T18:59:04.316Z,26.70
2019-01-15T19:04:27.363Z,26.30
2019-01-15T19:09:56.918Z,26.73
2019-01-15T19:15:34.202Z,31.40
2019-01-15T19:21:05.138Z,31.73
2019-01-15T19:26:37.751Z,30.67
2019-01-15T19:32:37.976Z,31.50
2019-01-15T19:38:20.691Z,34.87
2019-01-15T19:43:47.624Z,32.07
2019-01-15T19:49:20.378Z,30.13
2019-01-15T19:54:54.722Z,29.33
2019-01-15T20:00:19.261Z,32.67
2019-01-15T20:05:42.240Z,30.13
2019-01-15T20:11:12.809Z,35.50
2019-01-15T20:17:02.089Z,31.70
2019-01-15T20:22:39.167Z,29.57
2019-01-15T20:28:16.094Z,32.70
2019-01-15T20:33:47.073Z,38.50
2019-01-15T20:39:16.415Z,33.57
2019-01-15T20:44:41.221Z,33.97
2019-01-15T20:50:08.294Z,32.53
2019-01-15T20:55:35.490Z,30.33
2019-01-15T21:01:14.485Z,39.00
2019-01-15T21:06:37.724Z,30.43
2019-01-15T21:12:11.606Z,31.60
2019-01-15T21:17:39.550Z,31.40
2019-01-15T21:23:09.905Z,40.27
2019-01-15T21:28:37.356Z,32.43
2019-01-15T21:34:02.482Z,33.60
2019-01-15T21:39:32.887Z,34.30
2019-01-15T21:44:56.663Z,39.30
2019-01-15T21:50:21.532Z,41.07
2019-01-15T21:55:57.807Z,36.90
2019-01-15T22:01:30.750Z,40.70
2019-01-15T22:06:55.184Z,39.50
2019-01-15T22:12:18.218Z,45.50
2019-01-15T22:17:36.882Z,41.87
2019-01-15T22:23:01.206Z,38.03
2019-01-15T22:28:31.110Z,40.47
2019-01-15T22:33:58.122Z,39.63
2019-01-15T22:39:14.983Z,37.40
2019-01-15T22:44:44.136Z,39.93
2019-01-15T22:50:26.193Z,37.40
2019-01-15T22:56:02.758Z,40.20
2019-01-15T23:01:24.965Z,41.83
2019-01-15T23:06:48.084Z,39.97
2019-01-15T23:12:05.647Z,38.13
2019-01-15T23:17:28.720Z,38.93
2019-01-15T23:23:08.073Z,37.73
2019-01-15T23:28:31.044Z,41.27
2019-01-15T23:33:54.929Z,40.90
2019-01-15T23:39:24.761Z,36.33
2019-01-15T23:50:35.749Z,39.67
2019-01-15T23:55:59.772Z,34.77
